sensor_id;sensor_type;location;lat;lon;timestamp;P1;durP1;ratioP1;P2;durP2;ratioP2
5499;SDS011;2772;42.700;23.304;2023-08-30T00:02:26;13.13;;;9.80;;
5499;SDS011;2772;42.700;23.304;2023-08-30T00:04:57;12.83;;;9.13;;
5499;SDS011;2772;42.700;23.304;2023-08-30T00:07:24;12.73;;;9.40;;
5499;SDS011;2772;42.700;23.304;2023-08-30T00:09:51;11.90;;;9.10;;
5499;SDS011;2772;42.700;23.304;2023-08-30T00:12:18;10.50;;;8.30;;
5499;SDS011;2772;42.700;23.304;2023-08-30T00:14:45;8.77;;;7.60;;
5499;SDS011;2772;42.700;23.304;2023-08-30T00:17:13;11.60;;;8.23;;
5499;SDS011;2772;42.700;23.304;2023-08-30T00:19:40;11.03;;;7.57;;
5499;SDS011;2772;42.700;23.304;2023-08-30T00:22:07;13.20;;;7.30;;
5499;SDS011;2772;42.700;23.304;2023-08-30T00:24:33;13.60;;;7.77;;
5499;SDS011;2772;42.700;23.304;2023-08-30T00:27:01;11.80;;;8.00;;
5499;SDS011;2772;42.700;23.304;2023-08-30T00:29:28;8.10;;;7.30;;
5499;SDS011;2772;42.700;23.304;2023-08-30T00:31:54;10.60;;;8.00;;
5499;SDS011;2772;42.700;23.304;2023-08-30T00:34:23;13.30;;;8.20;;
5499;SDS011;2772;42.700;23.304;2023-08-30T00:36:49;10.70;;;8.07;;
5499;SDS011;2772;42.700;23.304;2023-08-30T00:39:16;15.30;;;8.73;;
5499;SDS011;2772;42.700;23.304;2023-08-30T00:41:43;12.63;;;8.10;;
5499;SDS011;2772;42.700;23.304;2023-08-30T00:44:09;12.00;;;8.17;;
5499;SDS011;2772;42.700;23.304;2023-08-30T00:46:36;9.80;;;7.50;;
5499;SDS011;2772;42.700;23.304;2023-08-30T00:49:04;10.87;;;8.10;;
5499;SDS011;2772;42.700;23.304;2023-08-30T00:51:32;10.10;;;7.73;;
5499;SDS011;2772;42.700;23.304;2023-08-30T00:53:59;11.37;;;7.70;;
5499;SDS011;2772;42.700;23.304;2023-08-30T00:56:27;10.63;;;8.17;;
5499;SDS011;2772;42.700;23.304;2023-08-30T00:58:54;13.40;;;7.87;;
5499;SDS011;2772;42.700;23.304;2023-08-30T01:01:21;10.80;;;7.53;;
5499;SDS011;2772;42.700;23.304;2023-08-30T01:03:49;10.17;;;7.73;;
5499;SDS011;2772;42.700;23.304;2023-08-30T01:06:15;11.67;;;7.40;;
5499;SDS011;2772;42.700;23.304;2023-08-30T01:08:43;12.33;;;7.50;;
5499;SDS011;2772;42.700;23.304;2023-08-30T01:11:11;12.63;;;6.50;;
5499;SDS011;2772;42.700;23.304;2023-08-30T01:13:50;10.83;;;6.97;;
5499;SDS011;2772;42.700;23.304;2023-08-30T01:16:19;10.40;;;6.60;;
5499;SDS011;2772;42.700;23.304;2023-08-30T01:18:48;8.47;;;7.27;;
5499;SDS011;2772;42.700;23.304;2023-08-30T01:21:20;11.27;;;7.50;;
5499;SDS011;2772;42.700;23.304;2023-08-30T01:23:58;8.67;;;6.43;;
5499;SDS011;2772;42.700;23.304;2023-08-30T01:26:29;13.83;;;6.80;;
5499;SDS011;2772;42.700;23.304;2023-08-30T01:29:06;9.70;;;7.00;;
5499;SDS011;2772;42.700;23.304;2023-08-30T01:31:37;10.77;;;6.50;;
5499;SDS011;2772;42.700;23.304;2023-08-30T01:34:06;10.43;;;7.00;;
5499;SDS011;2772;42.700;23.304;2023-08-30T01:36:33;16.87;;;7.07;;
5499;SDS011;2772;42.700;23.304;2023-08-30T01:39:00;10.90;;;7.17;;
5499;SDS011;2772;42.700;23.304;2023-08-30T01:41:30;9.57;;;6.50;;
5499;SDS011;2772;42.700;23.304;2023-08-30T01:43:57;12.17;;;7.30;;
5499;SDS011;2772;42.700;23.304;2023-08-30T01:46:25;11.03;;;7.07;;
5499;SDS011;2772;42.700;23.304;2023-08-30T01:48:53;10.73;;;7.30;;
5499;SDS011;2772;42.700;23.304;2023-08-30T01:51:21;9.93;;;7.40;;
5499;SDS011;2772;42.700;23.304;2023-08-30T01:53:51;10.20;;;6.90;;
5499;SDS011;2772;42.700;23.304;2023-08-30T01:56:18;10.57;;;6.80;;
5499;SDS011;2772;42.700;23.304;2023-08-30T01:58:45;9.50;;;7.27;;
5499;SDS011;2772;42.700;23.304;2023-08-30T02:01:12;7.53;;;6.70;;
5499;SDS011;2772;42.700;23.304;2023-08-30T02:03:42;13.07;;;7.33;;
5499;SDS011;2772;42.700;23.304;2023-08-30T02:06:11;7.50;;;6.63;;
5499;SDS011;2772;42.700;23.304;2023-08-30T02:08:44;11.73;;;6.90;;
5499;SDS011;2772;42.700;23.304;2023-08-30T02:11:19;9.73;;;7.30;;
5499;SDS011;2772;42.700;23.304;2023-08-30T02:13:52;11.00;;;7.27;;
5499;SDS011;2772;42.700;23.304;2023-08-30T02:16:20;14.13;;;7.80;;
5499;SDS011;2772;42.700;23.304;2023-08-30T02:18:50;8.80;;;6.90;;
5499;SDS011;2772;42.700;23.304;2023-08-30T02:21:17;14.03;;;7.00;;
5499;SDS011;2772;42.700;23.304;2023-08-30T02:23:48;12.97;;;7.63;;
5499;SDS011;2772;42.700;23.304;2023-08-30T02:26:17;9.50;;;6.97;;
5499;SDS011;2772;42.700;23.304;2023-08-30T02:28:44;9.70;;;6.77;;
5499;SDS011;2772;42.700;23.304;2023-08-30T02:31:11;12.20;;;8.37;;
5499;SDS011;2772;42.700;23.304;2023-08-30T02:33:37;12.40;;;7.87;;
5499;SDS011;2772;42.700;23.304;2023-08-30T02:36:06;13.37;;;7.97;;
5499;SDS011;2772;42.700;23.304;2023-08-30T02:38:33;9.97;;;7.77;;
5499;SDS011;2772;42.700;23.304;2023-08-30T02:41:00;10.27;;;7.20;;
5499;SDS011;2772;42.700;23.304;2023-08-30T02:43:26;12.60;;;7.50;;
5499;SDS011;2772;42.700;23.304;2023-08-30T02:45:53;11.37;;;7.70;;
5499;SDS011;2772;42.700;23.304;2023-08-30T02:48:20;9.83;;;7.67;;
5499;SDS011;2772;42.700;23.304;2023-08-30T02:50:47;11.53;;;7.10;;
5499;SDS011;2772;42.700;23.304;2023-08-30T02:53:15;20.80;;;7.83;;
5499;SDS011;2772;42.700;23.304;2023-08-30T02:55:42;15.37;;;7.57;;
5499;SDS011;2772;42.700;23.304;2023-08-30T02:58:09;10.20;;;7.37;;
5499;SDS011;2772;42.700;23.304;2023-08-30T03:00:35;16.60;;;8.30;;
5499;SDS011;2772;42.700;23.304;2023-08-30T03:03:02;17.23;;;8.23;;
5499;SDS011;2772;42.700;23.304;2023-08-30T03:05:29;11.33;;;8.57;;
5499;SDS011;2772;42.700;23.304;2023-08-30T03:07:56;14.33;;;8.47;;
5499;SDS011;2772;42.700;23.304;2023-08-30T03:10:24;12.07;;;8.53;;
5499;SDS011;2772;42.700;23.304;2023-08-30T03:12:51;13.47;;;8.60;;
5499;SDS011;2772;42.700;23.304;2023-08-30T03:15:17;12.70;;;7.83;;
5499;SDS011;2772;42.700;23.304;2023-08-30T03:17:44;14.87;;;8.07;;
5499;SDS011;2772;42.700;23.304;2023-08-30T03:20:11;13.10;;;7.40;;
5499;SDS011;2772;42.700;23.304;2023-08-30T03:22:38;16.13;;;7.10;;
5499;SDS011;2772;42.700;23.304;2023-08-30T03:25:05;17.83;;;7.70;;
5499;SDS011;2772;42.700;23.304;2023-08-30T03:27:35;13.13;;;8.20;;
5499;SDS011;2772;42.700;23.304;2023-08-30T03:30:02;14.07;;;7.53;;
5499;SDS011;2772;42.700;23.304;2023-08-30T03:32:31;11.07;;;8.10;;
5499;SDS011;2772;42.700;23.304;2023-08-30T03:34:58;8.97;;;6.60;;
5499;SDS011;2772;42.700;23.304;2023-08-30T03:37:25;21.20;;;7.47;;
5499;SDS011;2772;42.700;23.304;2023-08-30T03:39:51;14.27;;;7.47;;
5499;SDS011;2772;42.700;23.304;2023-08-30T03:42:18;15.60;;;7.40;;
5499;SDS011;2772;42.700;23.304;2023-08-30T03:44:46;14.33;;;7.23;;
5499;SDS011;2772;42.700;23.304;2023-08-30T03:47:13;13.23;;;7.33;;
5499;SDS011;2772;42.700;23.304;2023-08-30T03:49:39;24.00;;;8.33;;
5499;SDS011;2772;42.700;23.304;2023-08-30T03:52:07;13.93;;;7.03;;
5499;SDS011;2772;42.700;23.304;2023-08-30T03:54:33;14.23;;;6.93;;
5499;SDS011;2772;42.700;23.304;2023-08-30T03:57:00;12.73;;;6.97;;
5499;SDS011;2772;42.700;23.304;2023-08-30T03:59:27;12.47;;;6.50;;
5499;SDS011;2772;42.700;23.304;2023-08-30T04:01:56;9.83;;;6.20;;
5499;SDS011;2772;42.700;23.304;2023-08-30T04:04:23;16.87;;;6.63;;
5499;SDS011;2772;42.700;23.304;2023-08-30T04:06:49;28.73;;;7.30;;
5499;SDS011;2772;42.700;23.304;2023-08-30T04:09:16;10.10;;;7.03;;
5499;SDS011;2772;42.700;23.304;2023-08-30T04:11:43;17.73;;;7.40;;
5499;SDS011;2772;42.700;23.304;2023-08-30T04:14:10;16.53;;;7.73;;
5499;SDS011;2772;42.700;23.304;2023-08-30T04:16:36;11.33;;;6.83;;
5499;SDS011;2772;42.700;23.304;2023-08-30T04:19:04;13.80;;;6.70;;
5499;SDS011;2772;42.700;23.304;2023-08-30T04:21:31;13.50;;;7.03;;
5499;SDS011;2772;42.700;23.304;2023-08-30T04:23:59;13.13;;;6.67;;
5499;SDS011;2772;42.700;23.304;2023-08-30T04:26:27;11.43;;;6.83;;
5499;SDS011;2772;42.700;23.304;2023-08-30T04:28:54;18.17;;;6.50;;
5499;SDS011;2772;42.700;23.304;2023-08-30T04:31:20;20.07;;;10.33;;
5499;SDS011;2772;42.700;23.304;2023-08-30T04:33:47;15.53;;;6.63;;
5499;SDS011;2772;42.700;23.304;2023-08-30T04:36:15;21.63;;;7.57;;
5499;SDS011;2772;42.700;23.304;2023-08-30T04:38:42;17.17;;;7.00;;
5499;SDS011;2772;42.700;23.304;2023-08-30T04:41:09;14.57;;;8.40;;
5499;SDS011;2772;42.700;23.304;2023-08-30T04:43:36;10.90;;;6.00;;
5499;SDS011;2772;42.700;23.304;2023-08-30T04:46:03;12.77;;;6.70;;
5499;SDS011;2772;42.700;23.304;2023-08-30T04:48:29;13.47;;;6.70;;
5499;SDS011;2772;42.700;23.304;2023-08-30T04:51:00;8.83;;;5.47;;
5499;SDS011;2772;42.700;23.304;2023-08-30T04:53:29;12.37;;;6.63;;
5499;SDS011;2772;42.700;23.304;2023-08-30T04:55:56;20.27;;;8.30;;
5499;SDS011;2772;42.700;23.304;2023-08-30T04:58:23;13.60;;;6.37;;
5499;SDS011;2772;42.700;23.304;2023-08-30T05:00:50;10.43;;;5.37;;
5499;SDS011;2772;42.700;23.304;2023-08-30T05:03:17;7.03;;;4.60;;
5499;SDS011;2772;42.700;23.304;2023-08-30T05:05:44;11.70;;;4.80;;
5499;SDS011;2772;42.700;23.304;2023-08-30T05:08:12;11.33;;;5.20;;
5499;SDS011;2772;42.700;23.304;2023-08-30T05:10:40;8.43;;;4.70;;
5499;SDS011;2772;42.700;23.304;2023-08-30T05:13:08;11.60;;;5.73;;
5499;SDS011;2772;42.700;23.304;2023-08-30T05:15:35;10.97;;;5.40;;
5499;SDS011;2772;42.700;23.304;2023-08-30T05:18:01;11.60;;;8.03;;
5499;SDS011;2772;42.700;23.304;2023-08-30T05:20:28;13.83;;;6.13;;
5499;SDS011;2772;42.700;23.304;2023-08-30T05:22:56;9.33;;;4.93;;
5499;SDS011;2772;42.700;23.304;2023-08-30T05:25:22;17.57;;;6.03;;
5499;SDS011;2772;42.700;23.304;2023-08-30T05:27:50;10.80;;;4.70;;
5499;SDS011;2772;42.700;23.304;2023-08-30T05:30:17;12.60;;;4.70;;
5499;SDS011;2772;42.700;23.304;2023-08-30T05:32:44;9.47;;;3.97;;
5499;SDS011;2772;42.700;23.304;2023-08-30T05:35:11;4.93;;;3.90;;
5499;SDS011;2772;42.700;23.304;2023-08-30T05:37:37;8.83;;;4.63;;
5499;SDS011;2772;42.700;23.304;2023-08-30T05:40:05;7.87;;;4.23;;
5499;SDS011;2772;42.700;23.304;2023-08-30T05:42:33;4.40;;;3.90;;
5499;SDS011;2772;42.700;23.304;2023-08-30T05:45:01;6.53;;;4.87;;
5499;SDS011;2772;42.700;23.304;2023-08-30T05:47:28;6.40;;;4.20;;
5499;SDS011;2772;42.700;23.304;2023-08-30T05:49:55;8.93;;;5.80;;
5499;SDS011;2772;42.700;23.304;2023-08-30T05:52:22;6.43;;;4.23;;
5499;SDS011;2772;42.700;23.304;2023-08-30T05:54:50;9.70;;;5.50;;
5499;SDS011;2772;42.700;23.304;2023-08-30T05:57:17;10.23;;;5.13;;
5499;SDS011;2772;42.700;23.304;2023-08-30T05:59:44;12.90;;;6.97;;
5499;SDS011;2772;42.700;23.304;2023-08-30T06:02:12;13.80;;;6.70;;
5499;SDS011;2772;42.700;23.304;2023-08-30T06:04:39;9.90;;;5.33;;
5499;SDS011;2772;42.700;23.304;2023-08-30T06:07:06;7.73;;;5.10;;
5499;SDS011;2772;42.700;23.304;2023-08-30T06:09:33;11.33;;;5.77;;
5499;SDS011;2772;42.700;23.304;2023-08-30T06:12:00;6.30;;;4.70;;
5499;SDS011;2772;42.700;23.304;2023-08-30T06:14:26;7.73;;;4.80;;
5499;SDS011;2772;42.700;23.304;2023-08-30T06:16:53;14.73;;;7.67;;
5499;SDS011;2772;42.700;23.304;2023-08-30T06:19:21;15.20;;;6.83;;
5499;SDS011;2772;42.700;23.304;2023-08-30T06:21:48;13.90;;;7.90;;
5499;SDS011;2772;42.700;23.304;2023-08-30T06:24:15;9.40;;;5.13;;
5499;SDS011;2772;42.700;23.304;2023-08-30T06:26:42;9.50;;;5.93;;
5499;SDS011;2772;42.700;23.304;2023-08-30T06:29:09;6.13;;;4.93;;
5499;SDS011;2772;42.700;23.304;2023-08-30T06:31:36;21.93;;;7.77;;
5499;SDS011;2772;42.700;23.304;2023-08-30T06:34:04;8.80;;;4.60;;
5499;SDS011;2772;42.700;23.304;2023-08-30T06:36:32;6.40;;;4.23;;
5499;SDS011;2772;42.700;23.304;2023-08-30T06:38:59;6.17;;;5.10;;
5499;SDS011;2772;42.700;23.304;2023-08-30T06:41:25;15.10;;;5.40;;
5499;SDS011;2772;42.700;23.304;2023-08-30T06:43:52;12.97;;;8.87;;
5499;SDS011;2772;42.700;23.304;2023-08-30T06:46:19;6.00;;;5.47;;
5499;SDS011;2772;42.700;23.304;2023-08-30T06:48:46;8.80;;;5.13;;
5499;SDS011;2772;42.700;23.304;2023-08-30T06:51:13;10.30;;;5.70;;
5499;SDS011;2772;42.700;23.304;2023-08-30T06:53:41;5.43;;;4.87;;
5499;SDS011;2772;42.700;23.304;2023-08-30T06:56:08;7.30;;;5.40;;
5499;SDS011;2772;42.700;23.304;2023-08-30T06:58:35;6.73;;;5.00;;
5499;SDS011;2772;42.700;23.304;2023-08-30T07:01:01;10.50;;;5.10;;
5499;SDS011;2772;42.700;23.304;2023-08-30T07:03:28;9.50;;;6.43;;
5499;SDS011;2772;42.700;23.304;2023-08-30T07:05:55;9.97;;;6.07;;
5499;SDS011;2772;42.700;23.304;2023-08-30T07:08:22;9.30;;;5.60;;
5499;SDS011;2772;42.700;23.304;2023-08-30T07:10:50;21.07;;;5.63;;
5499;SDS011;2772;42.700;23.304;2023-08-30T07:13:17;13.17;;;9.13;;
5499;SDS011;2772;42.700;23.304;2023-08-30T07:15:44;8.83;;;5.87;;
5499;SDS011;2772;42.700;23.304;2023-08-30T07:18:11;15.90;;;5.83;;
5499;SDS011;2772;42.700;23.304;2023-08-30T07:20:38;12.43;;;7.87;;
5499;SDS011;2772;42.700;23.304;2023-08-30T07:23:05;8.30;;;5.40;;
5499;SDS011;2772;42.700;23.304;2023-08-30T07:25:32;18.83;;;6.10;;
5499;SDS011;2772;42.700;23.304;2023-08-30T07:28:02;13.20;;;6.10;;
5499;SDS011;2772;42.700;23.304;2023-08-30T07:30:29;12.37;;;6.30;;
5499;SDS011;2772;42.700;23.304;2023-08-30T07:32:56;11.57;;;6.33;;
5499;SDS011;2772;42.700;23.304;2023-08-30T07:35:23;9.27;;;5.63;;
5499;SDS011;2772;42.700;23.304;2023-08-30T07:37:50;14.80;;;6.60;;
5499;SDS011;2772;42.700;23.304;2023-08-30T07:40:17;10.20;;;6.00;;
5499;SDS011;2772;42.700;23.304;2023-08-30T07:42:46;12.00;;;6.27;;
5499;SDS011;2772;42.700;23.304;2023-08-30T07:45:14;11.00;;;6.03;;
5499;SDS011;2772;42.700;23.304;2023-08-30T07:47:41;8.30;;;5.67;;
5499;SDS011;2772;42.700;23.304;2023-08-30T07:50:07;12.63;;;7.20;;
5499;SDS011;2772;42.700;23.304;2023-08-30T07:52:34;11.80;;;5.40;;
5499;SDS011;2772;42.700;23.304;2023-08-30T07:55:01;6.93;;;5.60;;
5499;SDS011;2772;42.700;23.304;2023-08-30T07:57:32;8.83;;;5.50;;
5499;SDS011;2772;42.700;23.304;2023-08-30T07:59:59;10.80;;;6.30;;
5499;SDS011;2772;42.700;23.304;2023-08-30T08:02:27;11.63;;;5.77;;
5499;SDS011;2772;42.700;23.304;2023-08-30T08:04:54;14.20;;;5.00;;
5499;SDS011;2772;42.700;23.304;2023-08-30T08:07:21;10.20;;;5.00;;
5499;SDS011;2772;42.700;23.304;2023-08-30T08:09:47;13.33;;;5.70;;
5499;SDS011;2772;42.700;23.304;2023-08-30T08:12:14;14.07;;;5.97;;
5499;SDS011;2772;42.700;23.304;2023-08-30T08:14:41;8.90;;;4.47;;
5499;SDS011;2772;42.700;23.304;2023-08-30T08:17:07;10.67;;;4.73;;
5499;SDS011;2772;42.700;23.304;2023-08-30T08:19:35;10.00;;;4.90;;
5499;SDS011;2772;42.700;23.304;2023-08-30T08:22:04;11.33;;;5.30;;
5499;SDS011;2772;42.700;23.304;2023-08-30T08:24:31;8.80;;;4.77;;
5499;SDS011;2772;42.700;23.304;2023-08-30T08:26:58;8.53;;;4.50;;
5499;SDS011;2772;42.700;23.304;2023-08-30T08:29:26;10.80;;;5.00;;
5499;SDS011;2772;42.700;23.304;2023-08-30T08:31:53;7.03;;;4.33;;
5499;SDS011;2772;42.700;23.304;2023-08-30T08:34:19;9.00;;;5.50;;
5499;SDS011;2772;42.700;23.304;2023-08-30T08:36:48;8.40;;;4.80;;
5499;SDS011;2772;42.700;23.304;2023-08-30T08:39:14;7.13;;;4.40;;
5499;SDS011;2772;42.700;23.304;2023-08-30T08:41:43;8.30;;;4.33;;
5499;SDS011;2772;42.700;23.304;2023-08-30T08:44:11;7.40;;;4.17;;
5499;SDS011;2772;42.700;23.304;2023-08-30T08:46:40;6.03;;;3.97;;
5499;SDS011;2772;42.700;23.304;2023-08-30T08:49:08;5.73;;;4.30;;
5499;SDS011;2772;42.700;23.304;2023-08-30T08:51:37;5.87;;;4.37;;
5499;SDS011;2772;42.700;23.304;2023-08-30T08:54:06;6.00;;;4.27;;
5499;SDS011;2772;42.700;23.304;2023-08-30T08:56:34;4.70;;;4.30;;
5499;SDS011;2772;42.700;23.304;2023-08-30T08:59:02;6.03;;;3.80;;
5499;SDS011;2772;42.700;23.304;2023-08-30T09:01:29;7.90;;;3.60;;
5499;SDS011;2772;42.700;23.304;2023-08-30T09:03:58;7.80;;;4.60;;
5499;SDS011;2772;42.700;23.304;2023-08-30T09:06:25;9.67;;;4.20;;
5499;SDS011;2772;42.700;23.304;2023-08-30T09:08:54;8.47;;;3.70;;
5499;SDS011;2772;42.700;23.304;2023-08-30T09:11:22;4.30;;;3.93;;
5499;SDS011;2772;42.700;23.304;2023-08-30T09:13:49;6.57;;;4.07;;
5499;SDS011;2772;42.700;23.304;2023-08-30T09:16:16;7.27;;;4.07;;
5499;SDS011;2772;42.700;23.304;2023-08-30T09:18:43;8.43;;;4.73;;
5499;SDS011;2772;42.700;23.304;2023-08-30T09:21:10;7.97;;;5.17;;
5499;SDS011;2772;42.700;23.304;2023-08-30T09:23:37;7.50;;;4.20;;
5499;SDS011;2772;42.700;23.304;2023-08-30T09:26:04;12.87;;;4.83;;
5499;SDS011;2772;42.700;23.304;2023-08-30T09:28:41;8.40;;;4.70;;
5499;SDS011;2772;42.700;23.304;2023-08-30T09:31:16;6.80;;;4.17;;
5499;SDS011;2772;42.700;23.304;2023-08-30T09:33:44;16.40;;;6.20;;
5499;SDS011;2772;42.700;23.304;2023-08-30T09:36:13;7.83;;;5.23;;
5499;SDS011;2772;42.700;23.304;2023-08-30T09:38:39;4.67;;;4.27;;
5499;SDS011;2772;42.700;23.304;2023-08-30T09:41:06;7.53;;;5.20;;
5499;SDS011;2772;42.700;23.304;2023-08-30T09:43:34;7.53;;;5.00;;
5499;SDS011;2772;42.700;23.304;2023-08-30T09:46:02;8.10;;;4.97;;
5499;SDS011;2772;42.700;23.304;2023-08-30T09:48:30;11.33;;;5.30;;
5499;SDS011;2772;42.700;23.304;2023-08-30T09:50:58;8.27;;;5.40;;
5499;SDS011;2772;42.700;23.304;2023-08-30T09:53:25;9.13;;;6.07;;
5499;SDS011;2772;42.700;23.304;2023-08-30T09:55:53;13.53;;;5.87;;
5499;SDS011;2772;42.700;23.304;2023-08-30T09:58:20;10.63;;;5.10;;
5499;SDS011;2772;42.700;23.304;2023-08-30T10:00:48;7.17;;;5.50;;
5499;SDS011;2772;42.700;23.304;2023-08-30T10:03:16;7.10;;;4.87;;
5499;SDS011;2772;42.700;23.304;2023-08-30T10:05:44;8.80;;;6.33;;
5499;SDS011;2772;42.700;23.304;2023-08-30T10:08:13;7.80;;;6.30;;
5499;SDS011;2772;42.700;23.304;2023-08-30T10:10:40;9.10;;;5.80;;
5499;SDS011;2772;42.700;23.304;2023-08-30T10:13:07;9.07;;;4.90;;
5499;SDS011;2772;42.700;23.304;2023-08-30T10:15:35;8.17;;;5.43;;
5499;SDS011;2772;42.700;23.304;2023-08-30T10:18:06;9.60;;;5.73;;
5499;SDS011;2772;42.700;23.304;2023-08-30T10:20:35;6.37;;;5.50;;
5499;SDS011;2772;42.700;23.304;2023-08-30T10:23:04;7.87;;;6.20;;
5499;SDS011;2772;42.700;23.304;2023-08-30T10:25:31;6.07;;;5.40;;
5499;SDS011;2772;42.700;23.304;2023-08-30T10:27:59;10.13;;;5.33;;
5499;SDS011;2772;42.700;23.304;2023-08-30T10:30:27;6.33;;;5.73;;
5499;SDS011;2772;42.700;23.304;2023-08-30T10:32:54;6.53;;;5.90;;
5499;SDS011;2772;42.700;23.304;2023-08-30T10:35:24;8.47;;;6.80;;
5499;SDS011;2772;42.700;23.304;2023-08-30T10:37:54;12.80;;;7.00;;
5499;SDS011;2772;42.700;23.304;2023-08-30T10:40:22;6.63;;;5.37;;
5499;SDS011;2772;42.700;23.304;2023-08-30T10:42:58;11.43;;;6.00;;
5499;SDS011;2772;42.700;23.304;2023-08-30T10:45:25;10.20;;;6.07;;
5499;SDS011;2772;42.700;23.304;2023-08-30T10:47:54;9.30;;;6.83;;
5499;SDS011;2772;42.700;23.304;2023-08-30T10:50:28;8.53;;;5.80;;
5499;SDS011;2772;42.700;23.304;2023-08-30T10:52:56;6.43;;;5.77;;
5499;SDS011;2772;42.700;23.304;2023-08-30T10:55:23;6.90;;;5.70;;
5499;SDS011;2772;42.700;23.304;2023-08-30T10:57:57;8.97;;;6.30;;
5499;SDS011;2772;42.700;23.304;2023-08-30T11:00:27;8.50;;;6.70;;
5499;SDS011;2772;42.700;23.304;2023-08-30T11:02:55;6.00;;;5.40;;
5499;SDS011;2772;42.700;23.304;2023-08-30T11:05:23;8.80;;;6.67;;
5499;SDS011;2772;42.700;23.304;2023-08-30T11:07:52;8.60;;;6.70;;
5499;SDS011;2772;42.700;23.304;2023-08-30T11:10:20;7.10;;;6.50;;
5499;SDS011;2772;42.700;23.304;2023-08-30T11:12:47;10.70;;;6.40;;
5499;SDS011;2772;42.700;23.304;2023-08-30T11:15:15;9.50;;;7.23;;
5499;SDS011;2772;42.700;23.304;2023-08-30T11:17:42;10.37;;;7.53;;
5499;SDS011;2772;42.700;23.304;2023-08-30T11:20:09;7.43;;;6.33;;
5499;SDS011;2772;42.700;23.304;2023-08-30T11:22:38;11.87;;;7.13;;
5499;SDS011;2772;42.700;23.304;2023-08-30T11:25:09;7.70;;;6.90;;
5499;SDS011;2772;42.700;23.304;2023-08-30T11:27:36;11.87;;;6.30;;
5499;SDS011;2772;42.700;23.304;2023-08-30T11:30:03;6.10;;;5.50;;
5499;SDS011;2772;42.700;23.304;2023-08-30T11:32:34;17.43;;;5.87;;
5499;SDS011;2772;42.700;23.304;2023-08-30T11:35:01;12.07;;;6.50;;
5499;SDS011;2772;42.700;23.304;2023-08-30T11:37:28;7.30;;;5.90;;
5499;SDS011;2772;42.700;23.304;2023-08-30T11:39:55;9.70;;;6.73;;
5499;SDS011;2772;42.700;23.304;2023-08-30T11:42:23;14.10;;;6.30;;
5499;SDS011;2772;42.700;23.304;2023-08-30T11:44:50;17.13;;;7.27;;
5499;SDS011;2772;42.700;23.304;2023-08-30T11:47:18;9.20;;;6.43;;
5499;SDS011;2772;42.700;23.304;2023-08-30T11:49:46;7.40;;;6.30;;
5499;SDS011;2772;42.700;23.304;2023-08-30T11:52:14;10.70;;;6.43;;
5499;SDS011;2772;42.700;23.304;2023-08-30T11:54:41;6.30;;;5.47;;
5499;SDS011;2772;42.700;23.304;2023-08-30T11:57:08;8.63;;;5.60;;
5499;SDS011;2772;42.700;23.304;2023-08-30T11:59:37;7.83;;;5.70;;
5499;SDS011;2772;42.700;23.304;2023-08-30T12:02:04;8.57;;;6.53;;
5499;SDS011;2772;42.700;23.304;2023-08-30T12:04:32;11.63;;;5.60;;
5499;SDS011;2772;42.700;23.304;2023-08-30T12:07:05;14.27;;;6.30;;
5499;SDS011;2772;42.700;23.304;2023-08-30T12:09:32;11.40;;;6.53;;
5499;SDS011;2772;42.700;23.304;2023-08-30T12:12:04;9.10;;;6.90;;
5499;SDS011;2772;42.700;23.304;2023-08-30T12:14:34;13.37;;;7.17;;
5499;SDS011;2772;42.700;23.304;2023-08-30T12:17:03;8.43;;;6.13;;
5499;SDS011;2772;42.700;23.304;2023-08-30T12:19:31;11.97;;;10.77;;
5499;SDS011;2772;42.700;23.304;2023-08-30T12:22:02;20.47;;;8.40;;
5499;SDS011;2772;42.700;23.304;2023-08-30T12:24:39;6.33;;;5.77;;
5499;SDS011;2772;42.700;23.304;2023-08-30T12:27:07;14.83;;;8.37;;
5499;SDS011;2772;42.700;23.304;2023-08-30T12:29:34;6.97;;;5.60;;
5499;SDS011;2772;42.700;23.304;2023-08-30T12:32:02;6.30;;;5.70;;
5499;SDS011;2772;42.700;23.304;2023-08-30T12:34:29;10.03;;;8.93;;
5499;SDS011;2772;42.700;23.304;2023-08-30T12:36:56;6.60;;;5.87;;
5499;SDS011;2772;42.700;23.304;2023-08-30T12:39:23;6.47;;;5.63;;
5499;SDS011;2772;42.700;23.304;2023-08-30T12:41:49;12.37;;;7.60;;
5499;SDS011;2772;42.700;23.304;2023-08-30T12:44:18;10.67;;;7.50;;
5499;SDS011;2772;42.700;23.304;2023-08-30T12:46:45;5.97;;;5.37;;
5499;SDS011;2772;42.700;23.304;2023-08-30T12:49:13;13.53;;;7.10;;
5499;SDS011;2772;42.700;23.304;2023-08-30T12:51:40;11.97;;;8.17;;
5499;SDS011;2772;42.700;23.304;2023-08-30T12:54:06;5.70;;;5.10;;
5499;SDS011;2772;42.700;23.304;2023-08-30T12:56:33;8.50;;;6.87;;
5499;SDS011;2772;42.700;23.304;2023-08-30T12:59:00;15.00;;;7.20;;
5499;SDS011;2772;42.700;23.304;2023-08-30T13:01:26;7.73;;;6.20;;
5499;SDS011;2772;42.700;23.304;2023-08-30T13:03:53;6.97;;;6.17;;
5499;SDS011;2772;42.700;23.304;2023-08-30T13:06:21;5.90;;;5.30;;
5499;SDS011;2772;42.700;23.304;2023-08-30T13:08:48;16.23;;;6.07;;
5499;SDS011;2772;42.700;23.304;2023-08-30T13:11:15;9.07;;;6.20;;
5499;SDS011;2772;42.700;23.304;2023-08-30T13:13:41;15.10;;;5.83;;
5499;SDS011;2772;42.700;23.304;2023-08-30T13:16:08;9.37;;;6.20;;
5499;SDS011;2772;42.700;23.304;2023-08-30T13:18:35;6.67;;;6.00;;
5499;SDS011;2772;42.700;23.304;2023-08-30T13:21:01;10.23;;;8.37;;
5499;SDS011;2772;42.700;23.304;2023-08-30T13:23:30;9.07;;;6.40;;
5499;SDS011;2772;42.700;23.304;2023-08-30T13:25:57;9.70;;;5.30;;
5499;SDS011;2772;42.700;23.304;2023-08-30T13:28:24;6.00;;;5.40;;
5499;SDS011;2772;42.700;23.304;2023-08-30T13:30:50;8.60;;;5.90;;
5499;SDS011;2772;42.700;23.304;2023-08-30T13:33:19;9.17;;;5.70;;
5499;SDS011;2772;42.700;23.304;2023-08-30T13:35:48;7.87;;;5.30;;
5499;SDS011;2772;42.700;23.304;2023-08-30T13:38:15;5.53;;;4.70;;
5499;SDS011;2772;42.700;23.304;2023-08-30T13:40:43;10.83;;;4.60;;
5499;SDS011;2772;42.700;23.304;2023-08-30T13:43:10;4.93;;;4.53;;
5499;SDS011;2772;42.700;23.304;2023-08-30T13:45:37;7.93;;;5.20;;
5499;SDS011;2772;42.700;23.304;2023-08-30T13:48:04;8.33;;;5.83;;
5499;SDS011;2772;42.700;23.304;2023-08-30T13:50:31;7.50;;;4.80;;
5499;SDS011;2772;42.700;23.304;2023-08-30T13:52:58;8.70;;;4.73;;
5499;SDS011;2772;42.700;23.304;2023-08-30T13:55:25;7.47;;;4.50;;
5499;SDS011;2772;42.700;23.304;2023-08-30T13:57:53;8.67;;;5.20;;
5499;SDS011;2772;42.700;23.304;2023-08-30T14:00:20;9.10;;;5.30;;
5499;SDS011;2772;42.700;23.304;2023-08-30T14:02:47;10.10;;;4.63;;
5499;SDS011;2772;42.700;23.304;2023-08-30T14:05:14;5.43;;;4.93;;
5499;SDS011;2772;42.700;23.304;2023-08-30T14:07:41;6.33;;;5.00;;
5499;SDS011;2772;42.700;23.304;2023-08-30T14:10:07;7.70;;;4.30;;
5499;SDS011;2772;42.700;23.304;2023-08-30T14:12:36;9.30;;;5.00;;
5499;SDS011;2772;42.700;23.304;2023-08-30T14:15:05;11.30;;;5.53;;
5499;SDS011;2772;42.700;23.304;2023-08-30T14:17:31;6.90;;;4.80;;
5499;SDS011;2772;42.700;23.304;2023-08-30T14:19:58;7.10;;;4.23;;
5499;SDS011;2772;42.700;23.304;2023-08-30T14:22:26;6.67;;;4.80;;
5499;SDS011;2772;42.700;23.304;2023-08-30T14:24:52;8.23;;;4.63;;
5499;SDS011;2772;42.700;23.304;2023-08-30T14:27:19;7.70;;;4.60;;
5499;SDS011;2772;42.700;23.304;2023-08-30T14:29:46;10.20;;;5.47;;
5499;SDS011;2772;42.700;23.304;2023-08-30T14:32:14;10.57;;;4.30;;
5499;SDS011;2772;42.700;23.304;2023-08-30T14:34:41;7.57;;;5.60;;
5499;SDS011;2772;42.700;23.304;2023-08-30T14:37:07;16.57;;;5.67;;
5499;SDS011;2772;42.700;23.304;2023-08-30T14:39:34;5.40;;;4.17;;
5499;SDS011;2772;42.700;23.304;2023-08-30T14:42:01;4.43;;;4.03;;
5499;SDS011;2772;42.700;23.304;2023-08-30T14:44:27;6.90;;;3.90;;
5499;SDS011;2772;42.700;23.304;2023-08-30T14:46:54;6.50;;;5.13;;
5499;SDS011;2772;42.700;23.304;2023-08-30T14:49:22;9.07;;;4.70;;
5499;SDS011;2772;42.700;23.304;2023-08-30T14:51:51;6.37;;;4.10;;
5499;SDS011;2772;42.700;23.304;2023-08-30T14:54:17;5.70;;;4.10;;
5499;SDS011;2772;42.700;23.304;2023-08-30T14:56:44;10.13;;;4.20;;
5499;SDS011;2772;42.700;23.304;2023-08-30T14:59:11;8.37;;;3.73;;